createdAt,value
2022-09-27T00:01:45.792Z,13.80
2022-09-27T00:04:12.794Z,13.80
2022-09-27T00:06:41.039Z,13.70
2022-09-27T00:09:08.132Z,13.70
2022-09-27T00:11:38.356Z,13.70
2022-09-27T00:14:06.968Z,13.80
2022-09-27T00:16:36.570Z,13.80
2022-09-27T00:19:06.570Z,13.90
2022-09-27T00:21:34.973Z,13.90
2022-09-27T00:24:02.110Z,13.80
2022-09-27T00:26:29.625Z,13.80
2022-09-27T00:28:56.538Z,13.80
2022-09-27T00:31:31.891Z,13.80
2022-09-27T00:34:01.453Z,13.90
2022-09-27T00:36:29.893Z,13.90
2022-09-27T00:43:50.165Z,13.90
2022-09-27T00:46:31.732Z,13.80
2022-09-27T00:49:14.068Z,13.80
2022-09-27T00:51:43.815Z,13.90
2022-09-27T00:54:45.270Z,13.80
2022-09-27T00:57:12.062Z,13.80
2022-09-27T00:59:44.132Z,13.80
2022-09-27T01:02:11.731Z,13.80
2022-09-27T01:04:39.648Z,13.80
2022-09-27T01:07:06.727Z,13.80
2022-09-27T01:09:34.972Z,13.80
2022-09-27T01:12:17.332Z,13.80
2022-09-27T01:15:18.168Z,13.80
2022-09-27T01:18:20.639Z,13.80
2022-09-27T01:21:10.616Z,13.80
2022-09-27T01:24:29.106Z,13.80
2022-09-27T01:27:37.021Z,13.80
2022-09-27T01:30:33.255Z,13.80
2022-09-27T01:33:14.717Z,13.80
2022-09-27T01:36:00.258Z,13.80
2022-09-27T01:38:39.000Z,13.70
2022-09-27T01:41:36.029Z,13.80
2022-09-27T01:44:35.225Z,13.80
2022-09-27T01:47:23.366Z,13.80
2022-09-27T01:50:06.780Z,13.80
2022-09-27T01:52:43.913Z,13.70
2022-09-27T01:55:14.773Z,13.80
2022-09-27T01:58:37.558Z,13.70
2022-09-27T02:01:06.136Z,13.60
2022-09-27T02:03:39.651Z,13.70
2022-09-27T02:06:39.190Z,13.60
2022-09-27T02:09:39.009Z,13.60
2022-09-27T02:12:23.564Z,13.70
2022-09-27T02:15:05.569Z,13.70
2022-09-27T02:17:42.248Z,13.60
2022-09-27T02:20:41.034Z,13.60
2022-09-27T02:23:31.761Z,13.60
2022-09-27T02:26:26.089Z,13.60
2022-09-27T02:29:07.292Z,13.60
2022-09-27T02:31:42.871Z,13.60
2022-09-27T02:34:18.431Z,13.60
2022-09-27T02:36:45.594Z,13.60
2022-09-27T02:39:12.614Z,13.60
2022-09-27T02:41:40.063Z,13.60
2022-09-27T02:44:11.657Z,13.60
2022-09-27T02:47:06.175Z,13.60
2022-09-27T02:49:45.000Z,13.60
2022-09-27T02:52:52.093Z,13.70
2022-09-27T02:55:32.260Z,13.70
2022-09-27T02:58:36.382Z,13.70
2022-09-27T03:01:45.932Z,13.70
2022-09-27T03:04:51.178Z,13.70
2022-09-27T03:07:18.494Z,13.70
2022-09-27T03:09:51.348Z,13.60
2022-09-27T03:12:28.480Z,13.60
2022-09-27T03:15:00.311Z,13.60
2022-09-27T03:17:54.194Z,13.60
2022-09-27T03:20:32.500Z,13.60
2022-09-27T03:23:07.826Z,13.60
2022-09-27T03:25:35.852Z,13.60
2022-09-27T03:28:03.667Z,13.60
2022-09-27T03:30:31.472Z,13.50
2022-09-27T03:33:00.586Z,13.60
2022-09-27T03:35:48.847Z,13.60
2022-09-27T03:38:16.031Z,13.50
2022-09-27T03:40:43.869Z,13.50
2022-09-27T03:43:11.369Z,13.50
2022-09-27T03:45:38.277Z,13.50
2022-09-27T03:48:08.815Z,13.50
2022-09-27T03:50:35.975Z,13.50
2022-09-27T03:53:02.860Z,13.50
2022-09-27T03:55:30.648Z,13.50
2022-09-27T03:57:57.418Z,13.50
2022-09-27T04:00:25.326Z,13.50
2022-09-27T04:02:52.319Z,13.50
2022-09-27T04:05:26.766Z,13.50
2022-09-27T04:07:57.486Z,13.40
2022-09-27T04:11:08.106Z,13.50
2022-09-27T04:13:35.519Z,13.50
2022-09-27T04:16:03.575Z,13.50
2022-09-27T04:18:55.498Z,13.50
2022-09-27T04:21:41.148Z,13.60
2022-09-27T04:24:11.878Z,13.60
2022-09-27T04:26:44.313Z,13.60
2022-09-27T04:29:13.361Z,13.60
2022-09-27T04:31:47.761Z,13.50
2022-09-27T04:34:50.608Z,13.50
2022-09-27T04:37:23.032Z,13.50
2022-09-27T04:39:53.894Z,13.50
2022-09-27T04:42:20.759Z,13.50
2022-09-27T04:44:47.990Z,13.40
2022-09-27T04:47:14.984Z,13.40
2022-09-27T04:49:42.833Z,13.40
2022-09-27T04:52:09.696Z,13.40
2022-09-27T04:54:36.884Z,13.40
2022-09-27T04:57:12.390Z,13.40
2022-09-27T04:59:41.862Z,13.50
2022-09-27T05:02:10.850Z,13.50
2022-09-27T05:04:50.608Z,13.50
2022-09-27T05:07:26.174Z,13.50
2022-09-27T05:10:30.655Z,13.50
2022-09-27T05:12:57.616Z,13.40
2022-09-27T05:15:24.654Z,13.40
2022-09-27T05:18:11.739Z,13.40
2022-09-27T05:21:01.106Z,13.40
2022-09-27T05:23:35.413Z,13.40
2022-09-27T05:26:07.495Z,13.40
2022-09-27T05:28:35.265Z,13.30
2022-09-27T05:31:02.980Z,13.30
2022-09-27T05:33:33.294Z,13.30
2022-09-27T05:36:24.763Z,13.30
2022-09-27T05:38:52.366Z,13.20
2022-09-27T05:41:55.267Z,13.20
2022-09-27T05:44:22.230Z,13.20
2022-09-27T05:46:56.219Z,13.20
2022-09-27T05:49:23.090Z,13.20
2022-09-27T05:51:49.942Z,13.30
2022-09-27T05:54:16.931Z,13.30
2022-09-27T05:56:45.011Z,13.30
2022-09-27T05:59:21.503Z,13.20
2022-09-27T06:02:12.096Z,13.20
2022-09-27T06:04:58.602Z,13.20
2022-09-27T06:07:46.198Z,13.20
2022-09-27T06:10:20.995Z,13.20
2022-09-27T06:12:47.818Z,13.20
2022-09-27T06:15:39.404Z,13.20
2022-09-27T06:18:10.045Z,13.20
2022-09-27T06:20:39.661Z,13.10
2022-09-27T06:23:18.642Z,13.10
2022-09-27T06:26:10.217Z,13.10
2022-09-27T06:29:10.369Z,13.00
2022-09-27T06:31:45.456Z,13.00
2022-09-27T06:34:33.736Z,13.00
2022-09-27T06:37:00.556Z,12.90
2022-09-27T06:39:29.003Z,12.90
2022-09-27T06:42:14.158Z,12.90
2022-09-27T06:45:03.671Z,12.90
2022-09-27T06:47:52.655Z,12.90
2022-09-27T06:50:49.274Z,12.90
2022-09-27T06:53:19.061Z,13.00
2022-09-27T06:55:45.945Z,13.00
2022-09-27T06:58:38.209Z,13.00
2022-09-27T07:01:29.825Z,12.90
2022-09-27T07:04:33.436Z,12.90
2022-09-27T07:07:00.293Z,12.90
2022-09-27T07:09:33.179Z,13.00
2022-09-27T07:12:02.227Z,13.00
2022-09-27T07:14:30.646Z,13.00
2022-09-27T07:16:57.876Z,13.00
2022-09-27T07:19:33.217Z,13.10
2022-09-27T07:22:03.029Z,13.20
2022-09-27T07:24:34.730Z,13.30
2022-09-27T07:27:05.189Z,13.40
2022-09-27T07:29:39.750Z,13.40
2022-09-27T07:32:12.233Z,13.30
2022-09-27T07:34:39.952Z,13.30
2022-09-27T07:37:08.022Z,13.20
2022-09-27T07:39:38.904Z,13.20
2022-09-27T07:42:06.650Z,13.20
2022-09-27T07:44:37.811Z,13.20
2022-09-27T07:47:21.685Z,13.20
2022-09-27T07:50:20.896Z,13.30
2022-09-27T07:52:55.284Z,13.30
2022-09-27T07:55:34.596Z,13.40
2022-09-27T07:58:13.766Z,13.40
2022-09-27T08:00:42.484Z,13.30
2022-09-27T08:03:15.278Z,13.30
2022-09-27T08:05:47.250Z,13.30
2022-09-27T08:08:16.253Z,13.30
2022-09-27T08:10:47.613Z,13.30
2022-09-27T08:13:20.433Z,13.40
2022-09-27T08:15:52.441Z,13.50
2022-09-27T08:18:22.195Z,13.40
2022-09-27T08:20:59.991Z,13.50
2022-09-27T08:23:30.540Z,13.50
2022-09-27T08:26:12.720Z,13.50
2022-09-27T08:28:51.212Z,13.60
2022-09-27T08:31:21.257Z,13.50
2022-09-27T08:33:52.923Z,13.50
2022-09-27T08:36:21.848Z,13.60
2022-09-27T08:38:52.472Z,13.60
2022-09-27T08:41:49.709Z,13.70
2022-09-27T08:44:28.268Z,13.80
2022-09-27T08:47:16.583Z,13.70
2022-09-27T08:49:56.696Z,13.80
2022-09-27T08:52:34.525Z,13.80
2022-09-27T08:55:17.457Z,13.80
2022-09-27T08:57:49.893Z,13.80
2022-09-27T09:00:17.210Z,13.90
2022-09-27T09:02:45.966Z,13.90
2022-09-27T09:05:30.897Z,13.90
2022-09-27T09:08:30.942Z,13.90
2022-09-27T09:11:35.198Z,14.00
2022-09-27T09:14:38.959Z,13.90
2022-09-27T09:17:46.811Z,14.00
2022-09-27T09:20:52.853Z,14.00
2022-09-27T09:23:33.372Z,14.00
2022-09-27T09:26:15.672Z,14.00
2022-09-27T09:29:12.820Z,14.00
2022-09-27T09:31:57.215Z,14.10
2022-09-27T09:34:27.962Z,14.10
2022-09-27T09:37:18.389Z,14.20
2022-09-27T09:39:53.741Z,14.20
2022-09-27T09:42:32.692Z,14.20
2022-09-27T09:45:19.929Z,14.30
2022-09-27T09:47:55.633Z,14.30
2022-09-27T09:50:35.118Z,14.30
2022-09-27T09:53:14.961Z,14.30
2022-09-27T09:55:51.307Z,14.30
2022-09-27T09:58:51.092Z,14.40
2022-09-27T10:01:34.088Z,14.50
2022-09-27T10:04:03.891Z,14.50
2022-09-27T10:06:31.970Z,14.50
2022-09-27T10:09:01.250Z,14.50
2022-09-27T10:11:45.857Z,14.50
2022-09-27T10:14:27.999Z,14.50
2022-09-27T10:17:03.623Z,14.50
2022-09-27T10:19:34.434Z,14.50
2022-09-27T10:22:18.892Z,14.50
2022-09-27T10:25:02.537Z,14.50
2022-09-27T10:27:46.302Z,14.50
2022-09-27T10:30:28.510Z,14.50
2022-09-27T10:33:00.724Z,14.50
2022-09-27T10:35:53.983Z,14.40
2022-09-27T10:38:34.498Z,14.40
2022-09-27T10:41:26.589Z,14.30
2022-09-27T10:44:20.123Z,14.30
2022-09-27T10:46:55.673Z,14.30
2022-09-27T10:49:42.172Z,14.40
2022-09-27T10:52:29.063Z,14.40
2022-09-27T10:55:25.136Z,14.50
2022-09-27T10:57:56.533Z,14.40
2022-09-27T11:00:27.890Z,14.50
2022-09-27T11:02:59.398Z,14.50
2022-09-27T11:05:40.495Z,14.50
2022-09-27T11:08:19.299Z,14.50
2022-09-27T11:11:21.328Z,14.50
2022-09-27T11:14:07.995Z,14.50
2022-09-27T11:17:00.514Z,14.60
2022-09-27T11:19:58.486Z,14.60
2022-09-27T11:22:58.640Z,14.60
2022-09-27T11:26:17.336Z,14.60
2022-09-27T11:29:11.109Z,14.60
2022-09-27T11:31:58.216Z,14.60
2022-09-27T11:35:06.753Z,14.70
2022-09-27T11:38:03.320Z,14.80
2022-09-27T11:41:03.282Z,14.90
2022-09-27T11:43:41.343Z,14.80
2022-09-27T11:46:26.601Z,14.90
2022-09-27T11:49:15.554Z,14.80
2022-09-27T11:51:44.738Z,14.80
2022-09-27T11:54:33.150Z,14.90
2022-09-27T11:57:13.055Z,14.90
2022-09-27T12:00:20.622Z,14.90
2022-09-27T12:03:42.503Z,14.90
2022-09-27T12:06:54.956Z,14.90
2022-09-27T12:09:39.709Z,14.90
2022-09-27T12:12:18.980Z,15.00
2022-09-27T12:15:07.180Z,15.00
2022-09-27T12:17:46.736Z,15.00
2022-09-27T12:20:31.072Z,14.90
2022-09-27T12:23:24.242Z,14.90
2022-09-27T12:26:14.017Z,14.80
2022-09-27T12:29:32.197Z,14.70
2022-09-27T12:32:24.181Z,14.80
2022-09-27T12:35:26.029Z,14.90
2022-09-27T12:38:17.500Z,15.00
2022-09-27T12:40:49.837Z,15.10
2022-09-27T12:43:29.173Z,15.20
2022-09-27T12:46:45.666Z,15.20
2022-09-27T12:49:13.386Z,15.20
2022-09-27T12:51:51.937Z,15.30
2022-09-27T12:54:44.967Z,15.30
2022-09-27T12:57:30.283Z,15.30
2022-09-27T13:00:17.520Z,15.40
2022-09-27T13:03:22.418Z,15.40
2022-09-27T13:06:26.800Z,15.40
2022-09-27T13:09:37.902Z,15.40
2022-09-27T13:12:11.133Z,15.30
2022-09-27T13:15:21.443Z,15.40
2022-09-27T13:18:06.724Z,15.50
2022-09-27T13:20:49.361Z,15.60
2022-09-27T13:23:53.286Z,15.70
2022-09-27T13:26:50.291Z,15.70
2022-09-27T13:29:29.282Z,15.60
2022-09-27T13:32:11.367Z,15.60
2022-09-27T13:35:25.154Z,15.60
2022-09-27T13:38:02.680Z,15.60
2022-09-27T13:40:34.474Z,15.60
2022-09-27T13:43:23.646Z,15.60
2022-09-27T13:49:21.466Z,15.60
2022-09-27T13:52:37.449Z,15.70
2022-09-27T13:55:48.939Z,15.70
2022-09-27T14:03:10.346Z,15.80
2022-09-27T14:06:06.692Z,15.80
2022-09-27T14:08:47.611Z,15.80
2022-09-27T14:11:23.805Z,15.60
2022-09-27T14:14:26.100Z,15.60
2022-09-27T14:17:01.527Z,15.60
2022-09-27T14:19:29.203Z,15.50
2022-09-27T14:21:58.096Z,15.50
2022-09-27T14:24:37.552Z,15.50
2022-09-27T14:27:27.124Z,15.50
2022-09-27T14:30:32.544Z,15.40
2022-09-27T14:33:36.491Z,15.50
2022-09-27T14:36:35.493Z,15.50
2022-09-27T14:39:02.743Z,15.50
2022-09-27T14:41:39.314Z,15.50
2022-09-27T14:44:19.426Z,15.50
2022-09-27T14:47:08.484Z,15.50
2022-09-27T14:49:55.856Z,15.50
2022-09-27T14:52:32.989Z,15.40
2022-09-27T14:55:07.569Z,15.40
2022-09-27T14:57:36.723Z,15.40
2022-09-27T15:00:34.779Z,15.30
2022-09-27T15:03:04.958Z,15.30
2022-09-27T15:05:36.275Z,15.30
2022-09-27T15:08:06.829Z,15.30
2022-09-27T15:10:41.061Z,15.40
2022-09-27T15:13:16.648Z,15.30
2022-09-27T15:15:51.559Z,15.30
2022-09-27T15:18:50.267Z,15.30
2022-09-27T15:21:46.764Z,15.40
2022-09-27T15:24:37.200Z,15.30
2022-09-27T15:27:15.864Z,15.40
2022-09-27T15:30:00.816Z,15.40
2022-09-27T15:32:36.728Z,15.40
2022-09-27T15:35:11.917Z,15.30
2022-09-27T15:37:40.674Z,15.30
2022-09-27T15:40:21.614Z,15.30
2022-09-27T15:43:03.437Z,15.20
2022-09-27T15:45:35.490Z,15.20
2022-09-27T15:48:19.253Z,15.20
2022-09-27T15:50:49.612Z,15.20
2022-09-27T15:53:34.420Z,15.20
2022-09-27T15:56:07.100Z,15.20
2022-09-27T15:58:35.212Z,15.10
2022-09-27T16:01:12.764Z,15.10
2022-09-27T16:03:47.834Z,15.10
2022-09-27T16:06:18.847Z,15.00
2022-09-27T16:08:49.855Z,15.00
2022-09-27T16:11:25.743Z,15.00
2022-09-27T16:13:56.152Z,14.90
2022-09-27T16:16:25.443Z,15.00
2022-09-27T16:18:56.922Z,15.00
2022-09-27T16:21:34.074Z,15.00
2022-09-27T16:24:21.933Z,15.00
2022-09-27T16:26:55.567Z,14.90
2022-09-27T16:32:18.161Z,14.90
2022-09-27T16:34:51.761Z,14.90
2022-09-27T16:37:26.522Z,14.80
2022-09-27T16:39:57.235Z,14.80
2022-09-27T16:42:30.044Z,14.80
2022-09-27T16:45:06.029Z,14.80
2022-09-27T16:47:42.174Z,14.80
2022-09-27T16:50:34.385Z,14.80
2022-09-27T16:53:04.544Z,14.80
2022-09-27T16:58:21.844Z,14.70
2022-09-27T17:00:51.086Z,14.70
2022-09-27T17:06:06.292Z,14.60
2022-09-27T17:08:34.054Z,14.60
2022-09-27T17:11:01.436Z,14.60
2022-09-27T17:13:28.741Z,14.60
2022-09-27T17:15:56.064Z,14.60
2022-09-27T17:18:23.321Z,14.60
2022-09-27T17:20:50.867Z,14.60
2022-09-27T17:23:18.105Z,14.60
2022-09-27T17:25:47.735Z,14.60
2022-09-27T17:28:15.396Z,14.60
2022-09-27T17:30:45.594Z,14.50
2022-09-27T17:33:13.262Z,14.50
2022-09-27T17:35:40.084Z,14.50
2022-09-27T17:38:11.289Z,14.40
2022-09-27T17:40:49.367Z,14.40
2022-09-27T17:43:16.441Z,14.30
2022-09-27T17:45:44.316Z,14.30
2022-09-27T17:48:31.443Z,14.30
2022-09-27T17:51:03.966Z,14.20
2022-09-27T17:53:35.484Z,14.10
2022-09-27T17:56:05.729Z,14.10
2022-09-27T17:58:33.196Z,14.10
2022-09-27T18:01:07.626Z,14.10
2022-09-27T18:03:37.429Z,14.10
2022-09-27T18:06:09.606Z,14.00
2022-09-27T18:08:39.851Z,14.00
2022-09-27T18:11:13.635Z,14.00
2022-09-27T18:13:44.153Z,13.90
2022-09-27T18:16:23.394Z,13.90
2022-09-27T18:18:51.975Z,13.80
2022-09-27T18:21:23.825Z,13.80
2022-09-27T18:23:53.002Z,13.80
2022-09-27T18:26:29.329Z,13.70
2022-09-27T18:29:01.689Z,13.70
2022-09-27T18:31:29.140Z,13.60
2022-09-27T18:33:56.783Z,13.60
2022-09-27T18:36:32.677Z,13.50
2022-09-27T18:39:20.615Z,13.50
2022-09-27T18:41:54.112Z,13.50
2022-09-27T18:44:23.616Z,13.50
2022-09-27T18:46:52.323Z,13.50
2022-09-27T18:49:25.379Z,13.50
2022-09-27T18:52:01.526Z,13.50
2022-09-27T18:54:28.410Z,13.50
2022-09-27T18:56:55.555Z,13.50
2022-09-27T18:59:26.335Z,13.50
2022-09-27T19:01:53.750Z,13.50
2022-09-27T19:04:25.034Z,13.40
2022-09-27T19:07:03.022Z,13.40
2022-09-27T19:09:32.635Z,13.40
2022-09-27T19:12:04.112Z,13.40
2022-09-27T19:14:31.229Z,13.40
2022-09-27T19:16:58.218Z,13.50
2022-09-27T19:19:28.877Z,13.50
2022-09-27T19:21:56.730Z,13.50
2022-09-27T19:24:30.723Z,13.50
2022-09-27T19:26:57.672Z,13.50
2022-09-27T19:29:42.795Z,13.40
2022-09-27T19:32:26.662Z,13.40
2022-09-27T19:35:02.433Z,13.40
2022-09-27T19:37:29.503Z,13.30
2022-09-27T19:39:59.080Z,13.30
2022-09-27T19:42:27.249Z,13.30
2022-09-27T19:44:55.118Z,13.30
2022-09-27T19:47:22.336Z,13.30
2022-09-27T19:49:49.199Z,13.20
2022-09-27T19:52:16.380Z,13.30
2022-09-27T19:54:43.210Z,13.30
2022-09-27T19:57:10.115Z,13.30
2022-09-27T19:59:36.979Z,13.30
2022-09-27T20:02:04.185Z,13.30
2022-09-27T20:04:31.305Z,13.30
2022-09-27T20:06:59.564Z,13.30
2022-09-27T20:09:27.732Z,13.30
2022-09-27T20:11:55.129Z,13.30
2022-09-27T20:14:22.318Z,13.30
2022-09-27T20:16:50.214Z,13.30
2022-09-27T20:19:17.227Z,13.30
2022-09-27T20:21:45.894Z,13.30
2022-09-27T20:24:12.909Z,13.30
2022-09-27T20:26:40.096Z,13.30
2022-09-27T20:29:07.512Z,13.30
2022-09-27T20:31:56.973Z,13.30
2022-09-27T20:34:31.417Z,13.30
2022-09-27T20:36:59.748Z,13.40
2022-09-27T20:39:27.257Z,13.30
2022-09-27T20:41:55.358Z,13.40
2022-09-27T20:44:22.219Z,13.30
2022-09-27T20:46:49.756Z,13.30
2022-09-27T20:49:18.648Z,13.30
2022-09-27T20:51:49.168Z,13.30
2022-09-27T20:54:15.952Z,13.40
2022-09-27T20:56:46.190Z,13.50
2022-09-27T20:59:19.164Z,13.50
2022-09-27T21:01:50.650Z,13.40
2022-09-27T21:04:25.723Z,13.40
2022-09-27T21:06:58.255Z,13.40
2022-09-27T21:09:32.431Z,13.40
2022-09-27T21:12:02.847Z,13.30
2022-09-27T21:14:38.694Z,13.30
2022-09-27T21:17:08.553Z,13.30
2022-09-27T21:19:35.315Z,13.40
2022-09-27T21:22:04.103Z,13.30
2022-09-27T21:24:31.271Z,13.30
2022-09-27T21:26:58.736Z,13.30
2022-09-27T21:29:25.535Z,13.40
2022-09-27T21:31:52.449Z,13.50
2022-09-27T21:34:19.476Z,13.60
2022-09-27T21:36:49.675Z,13.60
2022-09-27T21:39:16.974Z,13.50
2022-09-27T21:41:43.794Z,13.50
2022-09-27T21:44:13.629Z,13.40
2022-09-27T21:46:41.958Z,13.40
2022-09-27T21:49:09.216Z,13.30
2022-09-27T21:51:43.524Z,13.20
2022-09-27T21:54:16.667Z,13.20
2022-09-27T21:56:44.507Z,13.20
